createdAt,value
2023-03-29T00:00:35.904Z,4.50
2023-03-29T00:01:36.578Z,4.61
2023-03-29T00:02:36.861Z,4.62
2023-03-29T00:03:35.840Z,4.36
2023-03-29T00:04:35.831Z,4.46
2023-03-29T00:05:35.826Z,4.39
2023-03-29T00:06:35.735Z,4.50
2023-03-29T00:07:35.721Z,4.51
2023-03-29T00:08:35.754Z,4.39
2023-03-29T00:09:35.792Z,4.46
2023-03-29T00:10:35.768Z,4.53
2023-03-29T00:11:35.714Z,4.43
2023-03-29T00:12:35.704Z,4.35
2023-03-29T00:13:35.681Z,4.36
2023-03-29T00:14:35.660Z,4.31
2023-03-29T00:15:35.701Z,4.26
2023-03-29T00:16:35.684Z,4.24
2023-03-29T00:17:35.669Z,4.16
2023-03-29T00:18:35.630Z,4.04
2023-03-29T00:19:35.691Z,3.90
2023-03-29T00:20:35.609Z,4.04
2023-03-29T00:21:35.632Z,4.02
2023-03-29T00:22:35.599Z,3.93
2023-03-29T00:23:35.585Z,4.00
2023-03-29T00:24:35.557Z,3.99
2023-03-29T00:25:35.550Z,3.95
2023-03-29T00:26:35.560Z,3.98
2023-03-29T00:27:35.551Z,3.98
2023-03-29T00:28:35.569Z,4.00
2023-03-29T00:29:35.517Z,3.92
2023-03-29T00:30:35.491Z,3.92
2023-03-29T00:31:35.536Z,3.89
2023-03-29T00:32:35.514Z,3.90
2023-03-29T00:33:35.467Z,3.95
2023-03-29T00:34:35.510Z,3.95
2023-03-29T00:35:35.491Z,3.86
2023-03-29T00:36:35.455Z,3.88
2023-03-29T00:37:35.432Z,3.75
2023-03-29T00:38:35.428Z,3.72
2023-03-29T00:39:35.442Z,3.77
2023-03-29T00:40:35.384Z,3.88
2023-03-29T00:41:35.560Z,3.80
2023-03-29T00:42:35.353Z,3.81
2023-03-29T00:43:35.480Z,3.81
2023-03-29T00:44:35.360Z,3.84
2023-03-29T00:45:35.342Z,3.77
2023-03-29T00:46:35.438Z,3.77
2023-03-29T00:47:35.386Z,3.90
2023-03-29T00:48:35.316Z,3.81
2023-03-29T00:49:35.327Z,3.89
2023-03-29T00:50:35.298Z,3.77
2023-03-29T00:51:35.283Z,3.95
2023-03-29T00:52:35.881Z,3.82
2023-03-29T00:53:35.248Z,3.82
2023-03-29T00:54:35.379Z,3.77
2023-03-29T00:55:35.355Z,3.89
2023-03-29T00:56:35.760Z,3.78
2023-03-29T00:57:35.246Z,3.84
2023-03-29T00:58:35.260Z,3.75
2023-03-29T00:59:35.210Z,3.74
2023-03-29T01:00:35.225Z,3.81
2023-03-29T01:01:35.259Z,3.80
2023-03-29T01:02:35.268Z,3.86
2023-03-29T01:03:35.874Z,3.82
2023-03-29T01:04:35.146Z,3.78
2023-03-29T01:05:35.278Z,3.74
2023-03-29T01:06:35.227Z,3.80
2023-03-29T01:07:35.124Z,3.72
2023-03-29T01:08:35.173Z,3.78
2023-03-29T01:09:35.119Z,3.84
2023-03-29T01:10:35.132Z,3.72
2023-03-29T01:11:35.081Z,3.81
2023-03-29T01:12:35.059Z,3.74
2023-03-29T01:13:35.098Z,3.74
2023-03-29T01:14:35.038Z,3.74
2023-03-29T01:15:35.190Z,3.78
2023-03-29T01:16:35.115Z,3.72
2023-03-29T01:17:35.118Z,3.68
2023-03-29T01:18:35.029Z,3.72
2023-03-29T01:19:35.000Z,3.72
2023-03-29T01:20:35.110Z,3.81
2023-03-29T01:21:34.991Z,3.80
2023-03-29T01:22:34.968Z,3.80
2023-03-29T01:23:34.989Z,3.77
2023-03-29T01:24:34.947Z,3.74
2023-03-29T01:25:34.945Z,3.72
2023-03-29T01:26:34.935Z,3.82
2023-03-29T01:27:34.914Z,3.84
2023-03-29T01:28:34.901Z,3.80
2023-03-29T01:29:34.887Z,3.86
2023-03-29T01:30:34.936Z,3.75
2023-03-29T01:31:34.884Z,3.77
2023-03-29T01:32:34.970Z,3.77
2023-03-29T01:33:34.867Z,3.81
2023-03-29T01:34:35.820Z,3.68
2023-03-29T01:35:34.841Z,3.72
2023-03-29T01:36:34.818Z,3.77
2023-03-29T01:37:34.866Z,3.68
2023-03-29T01:38:34.781Z,3.81
2023-03-29T01:39:34.828Z,3.95
2023-03-29T01:40:34.807Z,3.93
2023-03-29T01:41:34.775Z,3.95
2023-03-29T01:42:35.285Z,3.88
2023-03-29T01:43:34.741Z,3.95
2023-03-29T01:44:34.767Z,3.90
2023-03-29T01:45:34.749Z,3.99
2023-03-29T01:46:34.809Z,4.11
2023-03-29T01:47:34.756Z,4.11
2023-03-29T01:48:34.692Z,4.11
2023-03-29T01:49:34.708Z,4.08
2023-03-29T01:50:34.683Z,4.14
2023-03-29T01:51:34.663Z,4.11
2023-03-29T01:52:34.643Z,4.24
2023-03-29T01:53:34.649Z,4.13
2023-03-29T01:54:34.631Z,4.14
2023-03-29T01:55:34.617Z,4.10
2023-03-29T01:56:34.590Z,4.14
2023-03-29T01:57:35.595Z,4.08
2023-03-29T01:58:34.603Z,4.13
2023-03-29T01:59:35.576Z,4.11
2023-03-29T02:00:34.582Z,4.13
2023-03-29T02:01:35.377Z,4.11
2023-03-29T02:02:34.611Z,3.99
2023-03-29T02:03:34.726Z,3.93
2023-03-29T02:04:34.544Z,3.75
2023-03-29T02:05:34.483Z,3.81
2023-03-29T02:06:34.557Z,3.77
2023-03-29T02:07:34.498Z,3.90
2023-03-29T02:08:34.505Z,3.78
2023-03-29T02:09:34.491Z,3.81
2023-03-29T02:10:35.463Z,3.75
2023-03-29T02:11:34.470Z,3.74
2023-03-29T02:12:34.455Z,3.84
2023-03-29T02:13:34.416Z,3.93
2023-03-29T02:14:34.476Z,4.08
2023-03-29T02:15:34.458Z,4.02
2023-03-29T02:16:34.405Z,4.18
2023-03-29T02:17:34.417Z,4.26
2023-03-29T02:18:34.396Z,4.20
2023-03-29T02:19:34.392Z,4.21
2023-03-29T02:20:34.393Z,4.20
2023-03-29T02:21:34.368Z,4.14
2023-03-29T02:22:34.369Z,4.07
2023-03-29T02:23:34.398Z,4.13
2023-03-29T02:24:34.394Z,4.20
2023-03-29T02:25:34.347Z,4.18
2023-03-29T02:26:34.320Z,4.16
2023-03-29T02:27:34.362Z,4.02
2023-03-29T02:28:34.273Z,3.93
2023-03-29T02:29:34.274Z,3.99
2023-03-29T02:30:34.280Z,3.88
2023-03-29T02:31:34.272Z,3.96
2023-03-29T02:32:34.266Z,3.90
2023-03-29T02:33:34.251Z,3.89
2023-03-29T02:34:34.201Z,3.93
2023-03-29T02:35:34.374Z,3.90
2023-03-29T02:36:34.212Z,4.08
2023-03-29T02:37:34.202Z,4.11
2023-03-29T02:38:34.212Z,4.00
2023-03-29T02:39:34.301Z,3.92
2023-03-29T02:40:34.214Z,3.99
2023-03-29T02:41:34.166Z,3.90
2023-03-29T02:42:34.146Z,3.88
2023-03-29T02:43:34.208Z,3.82
2023-03-29T02:44:34.153Z,3.80
2023-03-29T02:45:34.198Z,3.86
2023-03-29T02:46:34.155Z,3.80
2023-03-29T02:47:34.190Z,3.75
2023-03-29T02:48:34.096Z,3.80
2023-03-29T02:49:34.084Z,3.84
2023-03-29T02:50:34.078Z,3.80
2023-03-29T02:51:35.096Z,3.98
2023-03-29T02:52:34.092Z,3.92
2023-03-29T02:53:34.073Z,3.88
2023-03-29T02:54:34.024Z,3.78
2023-03-29T02:55:34.011Z,3.80
2023-03-29T02:56:34.035Z,3.82
2023-03-29T02:57:34.009Z,3.77
2023-03-29T02:58:33.993Z,3.78
2023-03-29T02:59:33.994Z,3.71
2023-03-29T03:00:33.974Z,3.82
2023-03-29T03:01:34.017Z,3.78
2023-03-29T03:02:34.101Z,3.92
2023-03-29T03:03:34.128Z,3.90
2023-03-29T03:04:33.968Z,3.82
2023-03-29T03:05:33.931Z,3.84
2023-03-29T03:06:33.916Z,3.82
2023-03-29T03:07:33.924Z,3.78
2023-03-29T03:08:33.918Z,3.75
2023-03-29T03:09:33.883Z,3.75
2023-03-29T03:10:33.932Z,3.90
2023-03-29T03:11:33.864Z,3.92
2023-03-29T03:12:33.884Z,3.82
2023-03-29T03:13:33.883Z,3.75
2023-03-29T03:14:33.849Z,3.90
2023-03-29T03:15:33.848Z,3.80
2023-03-29T03:16:33.889Z,3.82
2023-03-29T03:17:33.889Z,3.80
2023-03-29T03:18:33.786Z,3.78
2023-03-29T03:19:33.788Z,3.77
2023-03-29T03:20:33.782Z,3.71
2023-03-29T03:21:33.819Z,3.67
2023-03-29T03:22:33.743Z,3.74
2023-03-29T03:23:33.766Z,3.80
2023-03-29T03:24:33.776Z,3.68
2023-03-29T03:25:33.707Z,3.74
2023-03-29T03:26:33.704Z,3.80
2023-03-29T03:27:33.647Z,3.67
2023-03-29T03:28:33.689Z,3.70
2023-03-29T03:29:33.703Z,3.71
2023-03-29T03:30:33.649Z,3.75
2023-03-29T03:31:34.453Z,3.68
2023-03-29T03:32:33.669Z,3.80
2023-03-29T03:33:33.654Z,3.70
2023-03-29T03:34:33.626Z,3.71
2023-03-29T03:35:33.607Z,3.70
2023-03-29T03:36:33.605Z,3.74
2023-03-29T03:37:33.613Z,3.64
2023-03-29T03:38:33.604Z,3.68
2023-03-29T03:39:33.609Z,3.68
2023-03-29T03:40:33.573Z,3.80
2023-03-29T03:41:33.565Z,3.74
2023-03-29T03:42:33.507Z,3.74
2023-03-29T03:43:33.542Z,3.84
2023-03-29T03:44:33.517Z,3.80
2023-03-29T03:45:33.570Z,3.78
2023-03-29T03:46:33.513Z,3.88
2023-03-29T03:47:33.495Z,3.78
2023-03-29T03:48:34.356Z,3.77
2023-03-29T03:49:33.466Z,3.78
2023-03-29T03:50:33.460Z,3.82
2023-03-29T03:51:33.491Z,3.92
2023-03-29T03:52:33.447Z,3.77
2023-03-29T03:53:33.414Z,3.84
2023-03-29T03:54:33.415Z,3.84
2023-03-29T03:55:33.365Z,3.72
2023-03-29T03:56:33.391Z,3.78
2023-03-29T03:57:33.359Z,3.84
2023-03-29T03:58:33.367Z,3.74
2023-03-29T03:59:33.342Z,3.77
2023-03-29T04:00:33.343Z,3.82
2023-03-29T04:01:33.358Z,3.72
2023-03-29T04:02:33.555Z,3.82
2023-03-29T04:03:33.370Z,3.89
2023-03-29T04:04:33.377Z,3.68
2023-03-29T04:05:33.303Z,3.77
2023-03-29T04:06:33.270Z,3.74
2023-03-29T04:07:33.282Z,3.74
2023-03-29T04:08:33.322Z,3.75
2023-03-29T04:09:33.234Z,3.77
2023-03-29T04:10:33.211Z,3.71
2023-03-29T04:11:33.226Z,3.72
2023-03-29T04:12:33.194Z,3.75
2023-03-29T04:13:33.278Z,3.77
2023-03-29T04:14:33.335Z,3.72
2023-03-29T04:15:33.235Z,3.80
2023-03-29T04:16:33.197Z,3.77
2023-03-29T04:17:33.152Z,3.72
2023-03-29T04:18:33.263Z,3.78
2023-03-29T04:19:33.156Z,3.75
2023-03-29T04:20:33.155Z,3.78
2023-03-29T04:21:33.118Z,3.89
2023-03-29T04:22:33.095Z,3.82
2023-03-29T04:23:33.138Z,3.90
2023-03-29T04:24:33.148Z,3.86
2023-03-29T04:25:33.103Z,3.81
2023-03-29T04:26:33.061Z,3.78
2023-03-29T04:27:33.074Z,3.81
2023-03-29T04:28:33.053Z,3.74
2023-03-29T04:29:33.428Z,3.82
2023-03-29T04:30:33.015Z,3.78
2023-03-29T04:31:34.119Z,3.67
2023-03-29T04:32:33.034Z,3.78
2023-03-29T04:33:33.012Z,3.72
2023-03-29T04:34:33.004Z,3.72
2023-03-29T04:35:33.057Z,3.74
2023-03-29T04:36:32.978Z,3.77
2023-03-29T04:37:33.428Z,3.84
2023-03-29T04:38:32.952Z,3.78
2023-03-29T04:39:33.912Z,3.86
2023-03-29T04:40:32.997Z,3.75
2023-03-29T04:41:32.942Z,3.93
2023-03-29T04:42:32.973Z,3.86
2023-03-29T04:43:32.881Z,3.93
2023-03-29T04:44:32.868Z,3.88
2023-03-29T04:45:32.865Z,3.96
2023-03-29T04:46:32.861Z,3.98
2023-03-29T04:47:32.943Z,3.93
2023-03-29T04:48:32.907Z,3.89
2023-03-29T04:49:32.840Z,4.02
2023-03-29T04:50:32.847Z,3.98
2023-03-29T04:51:32.828Z,4.07
2023-03-29T04:52:32.825Z,4.02
2023-03-29T04:53:32.782Z,3.93
2023-03-29T04:54:32.768Z,3.99
2023-03-29T04:55:32.781Z,4.02
2023-03-29T04:56:32.802Z,3.95
2023-03-29T04:57:32.826Z,4.14
2023-03-29T04:58:32.954Z,4.07
2023-03-29T04:59:32.740Z,4.11
2023-03-29T05:00:32.827Z,4.00
2023-03-29T05:01:33.038Z,4.08
2023-03-29T05:02:32.764Z,4.04
2023-03-29T05:03:32.731Z,3.95
2023-03-29T05:04:32.675Z,4.07
2023-03-29T05:05:32.662Z,4.17
2023-03-29T05:06:32.708Z,4.14
2023-03-29T05:07:32.645Z,4.13
2023-03-29T05:08:32.643Z,4.13
2023-03-29T05:09:35.018Z,4.14
2023-03-29T05:10:33.600Z,4.17
2023-03-29T05:11:33.583Z,4.20
2023-03-29T05:12:32.647Z,4.17
2023-03-29T05:13:32.593Z,4.20
2023-03-29T05:14:32.667Z,4.24
2023-03-29T05:15:32.549Z,4.18
2023-03-29T05:16:32.588Z,4.20
2023-03-29T05:17:32.593Z,4.24
2023-03-29T05:18:32.584Z,4.21
2023-03-29T05:19:32.577Z,4.29
2023-03-29T05:20:32.507Z,4.38
2023-03-29T05:21:32.614Z,4.34
2023-03-29T05:22:32.956Z,4.34
2023-03-29T05:23:32.496Z,4.35
2023-03-29T05:24:32.488Z,4.31
2023-03-29T05:25:33.382Z,4.36
2023-03-29T05:26:32.479Z,4.32
2023-03-29T05:27:32.503Z,4.31
2023-03-29T05:28:32.427Z,4.39
2023-03-29T05:29:32.443Z,4.36
2023-03-29T05:30:32.428Z,4.32
2023-03-29T05:31:32.458Z,4.35
2023-03-29T05:32:32.474Z,4.35
2023-03-29T05:33:32.374Z,4.49
2023-03-29T05:34:32.412Z,4.47
2023-03-29T05:35:32.401Z,4.43
2023-03-29T05:36:32.389Z,4.42
2023-03-29T05:37:32.377Z,4.57
2023-03-29T05:38:32.352Z,4.54
2023-03-29T05:39:33.702Z,4.53
2023-03-29T05:40:32.318Z,4.54
2023-03-29T05:41:33.296Z,4.56
2023-03-29T05:42:32.279Z,4.54
2023-03-29T05:43:32.299Z,4.53
2023-03-29T05:44:32.293Z,4.56
2023-03-29T05:45:32.296Z,4.53
2023-03-29T05:46:32.236Z,4.64
2023-03-29T05:47:32.296Z,4.67
2023-03-29T05:48:32.253Z,4.69
2023-03-29T05:49:32.181Z,4.62
2023-03-29T05:50:32.252Z,4.62
2023-03-29T05:51:32.157Z,4.61
2023-03-29T05:52:32.138Z,4.65
2023-03-29T05:53:32.226Z,4.50
2023-03-29T05:54:32.140Z,4.39
2023-03-29T05:55:32.115Z,4.56
2023-03-29T05:56:32.114Z,4.50
2023-03-29T05:57:32.080Z,4.61
2023-03-29T05:58:32.142Z,4.68
2023-03-29T05:59:32.163Z,4.57
2023-03-29T06:00:32.053Z,4.49
2023-03-29T06:01:32.072Z,4.49
2023-03-29T06:02:32.147Z,4.44
2023-03-29T06:03:32.205Z,4.42
2023-03-29T06:04:32.103Z,4.39
2023-03-29T06:05:32.020Z,4.38
2023-03-29T06:06:31.993Z,4.31
2023-03-29T06:07:31.996Z,4.25
2023-03-29T06:08:31.978Z,4.18
2023-03-29T06:09:32.002Z,4.14
2023-03-29T06:10:31.970Z,4.18
2023-03-29T06:11:32.198Z,4.20
2023-03-29T06:12:31.961Z,4.20
2023-03-29T06:13:32.048Z,4.16
2023-03-29T06:14:31.996Z,4.20
2023-03-29T06:15:31.940Z,4.34
2023-03-29T06:16:32.016Z,4.21
2023-03-29T06:17:31.947Z,4.25
2023-03-29T06:18:31.919Z,4.44
2023-03-29T06:19:31.905Z,4.44
2023-03-29T06:20:31.958Z,4.53
2023-03-29T06:21:32.041Z,4.35
2023-03-29T06:22:32.026Z,4.42
2023-03-29T06:23:31.878Z,4.46
2023-03-29T06:24:32.346Z,4.56
2023-03-29T06:25:31.832Z,4.50
2023-03-29T06:26:31.812Z,4.34
2023-03-29T06:27:31.834Z,4.51
2023-03-29T06:28:31.915Z,4.53
2023-03-29T06:29:31.789Z,4.53
2023-03-29T06:30:31.752Z,4.53
2023-03-29T06:31:31.786Z,4.54
2023-03-29T06:32:31.786Z,4.49
2023-03-29T06:33:31.692Z,4.71
2023-03-29T06:34:31.676Z,4.65
2023-03-29T06:35:31.774Z,4.65
2023-03-29T06:36:32.130Z,4.62
2023-03-29T06:37:31.668Z,4.67
2023-03-29T06:38:31.675Z,4.77
2023-03-29T06:39:31.618Z,4.72
2023-03-29T06:40:31.650Z,4.72
2023-03-29T06:41:31.643Z,4.94
2023-03-29T06:42:31.584Z,4.96
2023-03-29T06:43:31.650Z,5.04
2023-03-29T06:44:31.598Z,4.93
2023-03-29T06:45:31.630Z,5.04
2023-03-29T06:46:31.637Z,4.99
2023-03-29T06:47:31.674Z,5.05
2023-03-29T06:48:31.516Z,5.06
2023-03-29T06:49:31.623Z,5.08
2023-03-29T06:50:32.484Z,5.12
2023-03-29T06:51:31.530Z,5.06
2023-03-29T06:52:31.526Z,4.93
2023-03-29T06:53:31.527Z,5.01
2023-03-29T06:54:31.457Z,4.93
2023-03-29T06:55:31.495Z,5.14
2023-03-29T06:56:31.490Z,5.12
2023-03-29T06:57:32.311Z,5.19
2023-03-29T06:58:31.432Z,5.15
2023-03-29T06:59:31.402Z,5.14
2023-03-29T07:00:31.450Z,5.09
2023-03-29T07:01:32.343Z,5.11
2023-03-29T07:02:31.441Z,5.08
2023-03-29T07:03:31.369Z,5.26
2023-03-29T07:04:31.393Z,5.24
2023-03-29T07:05:31.375Z,5.30
2023-03-29T07:06:31.336Z,5.15
2023-03-29T07:07:31.339Z,5.14
2023-03-29T07:08:31.544Z,5.32
2023-03-29T07:09:31.342Z,5.26
2023-03-29T07:10:31.285Z,5.45
2023-03-29T07:11:31.280Z,5.48
2023-03-29T07:12:31.266Z,5.58
2023-03-29T07:13:31.277Z,5.63
2023-03-29T07:14:31.229Z,5.73
2023-03-29T07:15:31.245Z,5.84
2023-03-29T07:16:31.254Z,5.90
2023-03-29T07:17:31.322Z,6.05
2023-03-29T07:18:31.214Z,5.92
2023-03-29T07:19:31.172Z,5.85
2023-03-29T07:20:31.164Z,5.98
2023-03-29T07:21:31.834Z,6.06
2023-03-29T07:22:31.389Z,6.16
2023-03-29T07:23:31.206Z,6.20
2023-03-29T07:24:32.141Z,6.28
2023-03-29T07:25:31.129Z,6.20
2023-03-29T07:26:31.093Z,6.19
2023-03-29T07:27:31.077Z,6.11
2023-03-29T07:28:31.881Z,5.80
2023-03-29T07:29:31.083Z,5.80
2023-03-29T07:30:32.166Z,5.84
2023-03-29T07:31:32.073Z,5.84
2023-03-29T07:32:31.183Z,5.77
2023-03-29T07:33:31.178Z,5.96
2023-03-29T07:34:31.057Z,6.02
2023-03-29T07:35:31.123Z,6.01
2023-03-29T07:36:31.078Z,6.16
2023-03-29T07:37:31.013Z,6.11
2023-03-29T07:38:31.034Z,6.16
2023-03-29T07:39:31.054Z,6.33
2023-03-29T07:40:31.712Z,6.17
2023-03-29T07:41:30.979Z,6.30
2023-03-29T07:42:30.985Z,6.32
2023-03-29T07:43:31.895Z,6.45
2023-03-29T07:44:30.976Z,6.53
2023-03-29T07:45:30.970Z,6.35
2023-03-29T07:46:30.892Z,6.32
2023-03-29T07:47:30.940Z,6.43
2023-03-29T07:48:30.909Z,6.45
2023-03-29T07:49:30.905Z,6.53
2023-03-29T07:50:30.896Z,6.51
2023-03-29T07:51:30.897Z,6.50
2023-03-29T07:52:30.866Z,6.46
2023-03-29T07:53:30.850Z,6.30
2023-03-29T07:54:30.817Z,6.38
2023-03-29T07:55:30.827Z,6.50
2023-03-29T07:56:30.783Z,6.46
2023-03-29T07:57:30.913Z,6.61
2023-03-29T07:58:30.724Z,6.76
2023-03-29T07:59:30.734Z,7.08
2023-03-29T08:00:30.740Z,7.34
2023-03-29T08:01:30.838Z,7.21
2023-03-29T08:02:30.762Z,7.32
2023-03-29T08:03:30.719Z,7.32
2023-03-29T08:04:31.821Z,7.08
2023-03-29T08:05:40.796Z,7.16
2023-03-29T08:06:32.701Z,7.16
2023-03-29T08:07:30.691Z,7.18
2023-03-29T08:08:30.732Z,7.45
2023-03-29T08:09:30.636Z,7.58
2023-03-29T08:10:30.639Z,7.55
2023-03-29T08:11:30.609Z,7.58
2023-03-29T08:12:30.564Z,7.57
2023-03-29T08:13:30.560Z,7.63
2023-03-29T08:14:30.606Z,7.58
2023-03-29T08:15:30.612Z,7.55
2023-03-29T08:16:31.330Z,7.47
2023-03-29T08:17:30.662Z,7.58
2023-03-29T08:18:32.863Z,7.58
2023-03-29T08:19:30.518Z,7.51
2023-03-29T08:21:03.566Z,7.45
2023-03-29T08:21:31.252Z,7.39
2023-03-29T08:22:30.537Z,7.51
2023-03-29T08:23:30.513Z,7.45
2023-03-29T08:24:30.499Z,7.39
2023-03-29T08:25:30.489Z,7.62
2023-03-29T08:26:30.477Z,7.60
2023-03-29T08:27:30.478Z,7.48
2023-03-29T08:28:30.439Z,7.44
2023-03-29T08:29:30.423Z,7.55
2023-03-29T08:30:30.415Z,7.47
2023-03-29T08:31:30.426Z,7.55
2023-03-29T08:32:30.422Z,7.54
2023-03-29T08:33:30.401Z,7.33
2023-03-29T08:34:30.414Z,7.26
2023-03-29T08:35:30.358Z,7.29
2023-03-29T08:36:30.402Z,7.18
2023-03-29T08:37:30.359Z,7.12
2023-03-29T08:38:30.373Z,7.14
2023-03-29T08:39:30.345Z,7.11
2023-03-29T08:40:30.310Z,7.11
2023-03-29T08:41:30.297Z,7.12
2023-03-29T08:42:30.304Z,7.16
2023-03-29T08:43:30.305Z,7.16
2023-03-29T08:44:30.295Z,7.32
2023-03-29T08:45:30.779Z,7.42
2023-03-29T08:46:35.151Z,7.69
2023-03-29T08:47:32.248Z,7.79
2023-03-29T08:48:30.242Z,7.76
2023-03-29T08:49:30.227Z,7.81
2023-03-29T08:50:30.222Z,7.76
2023-03-29T08:51:30.204Z,7.81
2023-03-29T08:52:30.175Z,7.71
2023-03-29T08:53:30.221Z,7.62
2023-03-29T08:54:30.147Z,7.70
2023-03-29T08:55:30.126Z,7.79
2023-03-29T08:56:32.763Z,7.91
2023-03-29T08:57:30.208Z,8.22
2023-03-29T08:58:30.142Z,8.45
2023-03-29T08:59:30.118Z,8.63
2023-03-29T09:00:30.094Z,8.67
2023-03-29T09:01:30.139Z,8.93
2023-03-29T09:02:30.117Z,9.13
2023-03-29T09:03:30.197Z,9.38
2023-03-29T09:04:30.056Z,9.56
2023-03-29T09:05:30.058Z,9.30
2023-03-29T09:06:30.804Z,9.37
2023-03-29T09:07:30.012Z,9.44
2023-03-29T09:08:30.000Z,9.48
2023-03-29T09:09:29.991Z,9.56
2023-03-29T09:10:30.705Z,9.42
2023-03-29T09:11:29.974Z,9.58
2023-03-29T09:12:29.974Z,9.74
2023-03-29T09:13:30.017Z,9.98
2023-03-29T09:14:29.937Z,10.42
2023-03-29T09:15:29.927Z,10.60
2023-03-29T09:16:31.919Z,10.55
2023-03-29T09:17:29.927Z,10.57
2023-03-29T09:18:29.879Z,11.12
2023-03-29T09:20:57.722Z,11.28
2023-03-29T09:20:59.275Z,11.51
2023-03-29T09:21:59.290Z,11.16
2023-03-29T09:22:59.251Z,10.54
2023-03-29T09:23:59.175Z,10.17
2023-03-29T09:24:59.186Z,10.14
2023-03-29T09:25:59.187Z,10.10
2023-03-29T09:26:59.282Z,10.04
2023-03-29T09:27:59.140Z,9.89
2023-03-29T09:28:59.166Z,9.80
2023-03-29T09:29:59.103Z,9.63
2023-03-29T09:30:59.131Z,9.44
2023-03-29T09:31:59.136Z,9.23
2023-03-29T09:32:59.230Z,9.13
2023-03-29T09:33:59.087Z,9.26
2023-03-29T09:34:59.073Z,9.32
2023-03-29T09:35:59.083Z,9.23
2023-03-29T09:36:59.045Z,9.35
2023-03-29T09:37:59.040Z,9.24
2023-03-29T09:38:59.017Z,9.19
2023-03-29T09:39:59.016Z,9.15
2023-03-29T09:40:58.972Z,9.13
2023-03-29T09:41:58.971Z,8.79
2023-03-29T09:42:58.977Z,8.91
2023-03-29T09:43:59.078Z,9.17
2023-03-29T09:44:58.989Z,9.24
2023-03-29T09:45:58.973Z,9.31
2023-03-29T09:46:58.917Z,9.53
2023-03-29T09:47:58.985Z,9.77
2023-03-29T09:48:58.961Z,9.65
2023-03-29T09:49:59.092Z,9.88
2023-03-29T09:50:58.944Z,9.91
2023-03-29T09:51:58.897Z,10.02
2023-03-29T09:52:58.959Z,10.13
2023-03-29T09:53:58.882Z,9.91
2023-03-29T09:54:59.106Z,9.63
2023-03-29T09:55:58.799Z,9.53
2023-03-29T09:56:58.896Z,9.52
2023-03-29T09:57:58.780Z,9.60
2023-03-29T09:58:58.824Z,9.37
2023-03-29T09:59:58.795Z,9.12
2023-03-29T10:00:58.843Z,9.17
2023-03-29T10:01:58.812Z,9.34
2023-03-29T10:02:58.949Z,9.48
2023-03-29T10:03:58.993Z,9.48
2023-03-29T10:04:59.391Z,9.65
2023-03-29T10:05:58.878Z,9.77
2023-03-29T10:06:58.727Z,9.92
2023-03-29T10:07:58.982Z,9.74
2023-03-29T10:08:58.913Z,9.89
2023-03-29T10:09:58.835Z,10.04
2023-03-29T10:10:58.717Z,10.10
2023-03-29T10:11:58.695Z,10.13
2023-03-29T10:12:58.635Z,9.98
2023-03-29T10:13:58.893Z,9.71
2023-03-29T10:14:58.755Z,9.77
2023-03-29T10:15:58.775Z,10.01
2023-03-29T10:16:58.705Z,10.17
2023-03-29T10:17:58.836Z,10.13
2023-03-29T10:18:58.680Z,10.24
2023-03-29T10:19:58.748Z,10.20
2023-03-29T10:20:58.649Z,10.09
2023-03-29T10:21:58.539Z,10.04
2023-03-29T10:22:58.696Z,10.10
2023-03-29T10:23:58.670Z,10.06
2023-03-29T10:24:59.067Z,9.77
2023-03-29T10:25:58.499Z,9.73
2023-03-29T10:26:58.541Z,9.53
2023-03-29T10:27:58.440Z,9.31
2023-03-29T10:28:58.478Z,9.68
2023-03-29T10:29:58.596Z,9.80
2023-03-29T10:30:58.768Z,9.77
2023-03-29T10:31:58.523Z,9.75
2023-03-29T10:32:58.559Z,9.80
2023-03-29T10:33:58.511Z,9.93
2023-03-29T10:34:58.648Z,10.10
2023-03-29T10:35:58.514Z,10.20
2023-03-29T10:36:58.610Z,10.31
2023-03-29T10:37:58.380Z,10.38
2023-03-29T10:38:59.078Z,10.26
2023-03-29T10:39:58.755Z,10.22
2023-03-29T10:41:00.662Z,10.35
2023-03-29T10:41:58.336Z,10.43
2023-03-29T10:42:58.360Z,10.49
2023-03-29T10:43:58.319Z,10.39
2023-03-29T10:44:58.334Z,10.46
2023-03-29T10:45:58.348Z,10.32
2023-03-29T10:46:58.346Z,9.88
2023-03-29T10:47:58.343Z,9.93
2023-03-29T10:48:58.254Z,9.93
2023-03-29T10:49:58.245Z,10.02
2023-03-29T10:50:58.407Z,10.10
2023-03-29T10:51:58.283Z,10.14
2023-03-29T10:52:58.240Z,10.44
2023-03-29T10:53:58.309Z,10.47
2023-03-29T10:54:58.234Z,10.62
2023-03-29T10:55:58.262Z,10.75
2023-03-29T10:56:58.321Z,10.44
2023-03-29T10:57:58.489Z,10.38
2023-03-29T10:58:58.801Z,10.35
2023-03-29T10:59:58.489Z,9.91
2023-03-29T11:00:58.473Z,9.65
2023-03-29T11:01:58.290Z,9.62
2023-03-29T11:02:58.195Z,9.68
2023-03-29T11:03:58.447Z,9.83
2023-03-29T11:04:58.388Z,9.77
2023-03-29T11:05:58.135Z,9.62
2023-03-29T11:06:58.303Z,9.89
2023-03-29T11:07:58.248Z,10.10
2023-03-29T11:08:58.487Z,10.25
2023-03-29T11:09:58.328Z,10.52
2023-03-29T11:10:58.432Z,10.68
2023-03-29T11:12:12.200Z,10.76
2023-03-29T11:13:00.576Z,10.65
2023-03-29T11:13:59.881Z,10.52
2023-03-29T11:14:58.159Z,10.42
2023-03-29T11:15:58.210Z,10.46
2023-03-29T11:16:58.063Z,10.49
2023-03-29T11:17:58.103Z,10.78
2023-03-29T11:18:59.398Z,10.81
2023-03-29T11:19:58.808Z,10.69
2023-03-29T11:20:58.189Z,10.70
2023-03-29T11:21:58.193Z,10.93
2023-03-29T11:22:58.311Z,11.01
2023-03-29T11:23:57.961Z,11.19
2023-03-29T11:24:58.103Z,11.06
2023-03-29T11:25:57.979Z,11.09
2023-03-29T11:26:59.021Z,11.21
2023-03-29T11:27:58.760Z,11.38
2023-03-29T11:28:58.626Z,11.44
2023-03-29T11:29:58.476Z,11.54
2023-03-29T12:55:12.970Z,15.19
2023-03-29T13:02:30.605Z,14.49
2023-03-29T13:07:34.166Z,15.01
2023-03-29T13:12:03.410Z,15.67
2023-03-29T13:19:26.305Z,15.89
2023-03-29T13:25:23.887Z,15.03
2023-03-29T13:29:05.718Z,14.23
2023-03-29T13:36:40.871Z,13.93
2023-03-29T13:55:56.863Z,14.82
2023-03-29T14:02:26.659Z,15.28
2023-03-29T14:09:17.869Z,15.13
2023-03-29T14:14:32.475Z,15.19
2023-03-29T14:15:31.820Z,15.09
2023-03-29T14:16:32.664Z,14.97
2023-03-29T14:17:32.525Z,15.04
2023-03-29T14:18:32.032Z,15.11
2023-03-29T14:19:32.052Z,15.23
2023-03-29T14:20:32.200Z,15.23
2023-03-29T14:21:31.989Z,15.34
2023-03-29T14:22:31.811Z,15.28
2023-03-29T14:23:31.814Z,15.31
2023-03-29T14:24:32.004Z,15.30
2023-03-29T14:25:31.814Z,15.07
2023-03-29T14:26:31.758Z,14.95
2023-03-29T14:27:31.815Z,15.01
2023-03-29T14:28:31.689Z,14.98
2023-03-29T14:29:31.796Z,14.97
2023-03-29T14:30:32.559Z,14.98
2023-03-29T14:35:22.761Z,14.79
2023-03-29T14:35:34.265Z,14.87
2023-03-29T14:36:29.570Z,14.87
2023-03-29T14:44:33.917Z,14.52
2023-03-29T14:45:57.461Z,14.59
2023-03-29T14:45:59.922Z,14.49
2023-03-29T14:48:24.617Z,14.52
2023-03-29T14:49:22.281Z,14.53
2023-03-29T14:49:30.998Z,14.49
2023-03-29T14:51:51.622Z,14.54
2023-03-29T14:51:54.469Z,14.49
2023-03-29T14:54:46.095Z,14.38
2023-03-29T14:54:48.212Z,14.41
2023-03-29T14:55:47.893Z,14.39
2023-03-29T14:57:07.523Z,14.35
2023-03-29T14:58:11.119Z,14.38
2023-03-29T15:01:45.647Z,14.48
2023-03-29T15:01:48.247Z,14.23
2023-03-29T15:03:29.591Z,14.20
2023-03-29T15:03:47.578Z,14.13
2023-03-29T15:06:19.785Z,14.16
2023-03-29T15:08:57.592Z,14.21
2023-03-29T15:10:16.927Z,14.06
2023-03-29T15:10:21.015Z,14.11
2023-03-29T15:11:18.881Z,14.04
2023-03-29T15:13:40.141Z,14.04
2023-03-29T15:13:57.016Z,14.05
2023-03-29T15:16:08.110Z,14.05
2023-03-29T15:16:10.460Z,13.90
2023-03-29T15:17:10.288Z,13.91
2023-03-29T15:18:10.928Z,13.91
2023-03-29T15:22:51.255Z,13.91
2023-03-29T15:22:52.994Z,14.01
2023-03-29T15:26:24.728Z,13.91
2023-03-29T15:27:04.176Z,14.01
2023-03-29T15:29:25.551Z,13.87
2023-03-29T15:31:07.277Z,13.79
2023-03-29T15:37:18.763Z,13.76
2023-03-29T15:38:18.310Z,13.80
2023-03-29T15:39:24.224Z,13.93
2023-03-29T15:46:48.912Z,13.88
2023-03-29T15:58:52.229Z,13.47
2023-03-29T16:03:53.690Z,13.50
2023-03-29T16:04:23.029Z,13.41
2023-03-29T16:06:45.734Z,13.47
2023-03-29T16:06:47.744Z,13.48
2023-03-29T16:11:23.873Z,13.54
2023-03-29T16:16:33.647Z,13.27
2023-03-29T16:17:49.135Z,13.14
2023-03-29T16:18:34.004Z,13.24
2023-03-29T16:21:45.625Z,13.09
2023-03-29T16:22:44.820Z,13.03
2023-03-29T16:23:45.512Z,12.99
2023-03-29T16:24:45.442Z,13.07
2023-03-29T16:25:44.809Z,13.09
2023-03-29T16:26:44.816Z,13.09
2023-03-29T16:27:44.784Z,12.99
2023-03-29T16:28:44.775Z,13.01
2023-03-29T16:29:44.788Z,12.96
2023-03-29T16:30:45.020Z,12.98
2023-03-29T16:31:44.935Z,13.03
2023-03-29T16:32:44.792Z,12.99
2023-03-29T16:33:44.733Z,13.07
2023-03-29T16:34:44.732Z,13.06
2023-03-29T16:35:44.686Z,13.06
2023-03-29T16:36:44.619Z,13.03
2023-03-29T16:37:44.671Z,12.98
2023-03-29T16:38:44.632Z,13.04
2023-03-29T16:39:44.618Z,13.04
2023-03-29T16:40:44.691Z,12.95
2023-03-29T16:41:44.551Z,13.01
2023-03-29T16:42:44.615Z,12.88
2023-03-29T16:43:44.611Z,12.89
2023-03-29T16:44:44.630Z,12.99
2023-03-29T16:45:44.568Z,12.89